Time;durP1;ratioP1;P1;durP2;ratioP2;P2;SDS_P1;SDS_P2;PMS_P1;PMS_P2;Temp;Humidity;BMP_temperature;BMP_pressure;BME280_temperature;BME280_humidity;BME280_pressure;Samples;Min_cycle;Max_cycle;Signal;HPM_P1;HPM_P2
2023/09/27 00:00:30;;;;;;;11.13;6.30;;;22.80;62.80;;;;;;6219252;23;20036;-76
2023/09/27 00:02:57;;;;;;;8.30;5.88;;;22.80;62.80;;;;;;6221887;23;20450;-76
2023/09/27 00:05:23;;;;;;;9.98;6.05;;;22.80;62.60;;;;;;6220329;23;20007;-76
2023/09/27 00:07:51;;;;;;;10.10;6.13;;;22.80;62.60;;;;;;6163128;22;20035;-76
2023/09/27 00:10:17;;;;;;;13.52;6.00;;;22.80;63.00;;;;;;6246308;23;20031;-77
2023/09/27 00:12:44;;;;;;;11.63;5.93;;;22.70;62.80;;;;;;6219344;23;20035;-76
2023/09/27 00:15:11;;;;;;;10.55;5.97;;;22.70;62.90;;;;;;6246309;23;20408;-77
2023/09/27 00:17:37;;;;;;;12.60;5.97;;;22.60;62.70;;;;;;6246335;23;20024;-76
2023/09/27 00:20:05;;;;;;;10.77;6.50;;;22.60;62.90;;;;;;6246821;23;20429;-78
2023/09/27 00:22:31;;;;;;;8.20;5.90;;;22.60;63.20;;;;;;6246322;23;20004;-77
2023/09/27 00:24:57;;;;;;;9.52;5.43;;;22.60;63.00;;;;;;6246196;23;20004;-76
2023/09/27 00:27:23;;;;;;;17.77;6.25;;;22.50;63.10;;;;;;6246262;23;20516;-76
2023/09/27 00:29:48;;;;;;;10.70;6.07;;;22.50;63.10;;;;;;6245978;23;20000;-77
2023/09/27 00:32:14;;;;;;;8.45;5.70;;;22.40;63.20;;;;;;6246923;23;20011;-77
2023/09/27 00:34:40;;;;;;;10.18;6.07;;;22.40;63.30;;;;;;6246140;23;20008;-76
2023/09/27 00:37:05;;;;;;;13.13;5.75;;;22.40;63.20;;;;;;6246232;23;20000;-77
2023/09/27 00:39:34;;;;;;;7.93;5.78;;;22.40;63.40;;;;;;6246220;23;20481;-77
2023/09/27 00:41:59;;;;;;;14.07;5.95;;;22.30;63.30;;;;;;6246119;23;20003;-76
2023/09/27 00:44:25;;;;;;;11.15;6.13;;;22.30;63.50;;;;;;6246190;23;20016;-78
2023/09/27 00:46:51;;;;;;;7.20;5.63;;;22.30;63.60;;;;;;6245901;23;19996;-77
2023/09/27 00:49:17;;;;;;;10.88;6.40;;;22.20;63.50;;;;;;6245985;23;20557;-76
2023/09/27 00:51:43;;;;;;;9.95;5.75;;;22.20;63.50;;;;;;6245745;23;20028;-77
2023/09/27 00:54:10;;;;;;;7.82;5.88;;;22.20;64.20;;;;;;6245842;23;20007;-78
2023/09/27 00:56:37;;;;;;;10.00;5.80;;;22.30;63.60;;;;;;6245539;23;20012;-76
2023/09/27 00:59:04;;;;;;;10.95;6.65;;;22.30;63.50;;;;;;6245600;23;20003;-77
2023/09/27 01:01:31;;;;;;;10.10;5.95;;;22.30;63.60;;;;;;6246126;23;20007;-76
2023/09/27 01:03:57;;;;;;;9.90;5.72;;;22.30;63.60;;;;;;6246125;23;20000;-77
2023/09/27 01:06:23;;;;;;;10.55;5.68;;;22.30;63.90;;;;;;6245750;23;20073;-78
2023/09/27 01:08:49;;;;;;;10.45;6.05;;;22.20;63.50;;;;;;6245381;23;20095;-76
2023/09/27 01:11:16;;;;;;;12.38;6.07;;;22.20;63.60;;;;;;6245468;23;20054;-77
2023/09/27 01:13:42;;;;;;;9.55;6.15;;;22.20;63.90;;;;;;6245385;23;19996;-77
2023/09/27 01:16:08;;;;;;;12.80;5.57;;;22.20;63.70;;;;;;6245460;23;20386;-77
2023/09/27 01:18:33;;;;;;;12.18;5.60;;;22.20;63.70;;;;;;6245735;23;20080;-77
2023/09/27 01:21:01;;;;;;;11.35;6.10;;;22.20;63.70;;;;;;6245914;23;20075;-77
2023/09/27 01:23:27;;;;;;;9.20;5.93;;;22.20;63.90;;;;;;6246002;23;20000;-77
2023/09/27 01:26:01;;;;;;;13.38;5.63;;;22.10;63.70;;;;;;6245831;23;20000;-77
2023/09/27 01:28:27;;;;;;;11.57;6.10;;;22.10;63.70;;;;;;6245901;23;20460;-76
2023/09/27 01:30:53;;;;;;;9.77;5.47;;;22.10;63.90;;;;;;6246291;23;20003;-77
2023/09/27 01:33:18;;;;;;;8.75;5.22;;;22.10;63.70;;;;;;6253264;23;20004;-77
2023/09/27 01:35:44;;;;;;;9.35;5.63;;;22.20;63.80;;;;;;6251199;23;20070;-76
2023/09/27 01:38:12;;;;;;;10.18;5.72;;;22.30;63.70;;;;;;6251404;23;20071;-77
2023/09/27 01:40:41;;;;;;;11.82;5.68;;;22.30;63.80;;;;;;6218575;23;20389;-77
2023/09/27 01:43:07;;;;;;;10.00;5.80;;;22.20;63.50;;;;;;6245499;23;20003;-77
2023/09/27 01:45:33;;;;;;;15.10;5.50;;;22.10;63.60;;;;;;6245656;23;20000;-77
2023/09/27 01:48:00;;;;;;;11.68;5.97;;;22.10;63.50;;;;;;6244925;23;20418;-77
2023/09/27 01:50:26;;;;;;;9.07;5.78;;;22.00;63.60;;;;;;6245233;23;20003;-78
2023/09/27 01:52:52;;;;;;;11.82;5.53;;;22.00;63.80;;;;;;6245137;23;19996;-76
2023/09/27 01:55:19;;;;;;;11.90;5.30;;;22.00;63.80;;;;;;6245654;23;20091;-77
2023/09/27 01:57:47;;;;;;;9.95;5.60;;;21.90;63.70;;;;;;6245376;23;20095;-76
2023/09/27 02:00:15;;;;;;;11.10;5.93;;;21.90;63.70;;;;;;6245129;23;20000;-77
2023/09/27 02:02:45;;;;;;;10.52;5.50;;;21.90;63.90;;;;;;6244673;23;20013;-77
2023/09/27 02:05:11;;;;;;;11.10;5.63;;;21.90;63.80;;;;;;6245251;23;20035;-77
2023/09/27 02:07:41;;;;;;;8.85;5.65;;;21.90;64.00;;;;;;6245121;23;20120;-76
2023/09/27 02:10:11;;;;;;;11.18;5.78;;;21.90;64.30;;;;;;6244859;22;20027;-76
2023/09/27 02:12:37;;;;;;;10.25;5.68;;;21.80;64.10;;;;;;6245488;23;20075;-77
2023/09/27 02:15:04;;;;;;;11.48;5.70;;;21.80;64.30;;;;;;6245524;23;20429;-76
2023/09/27 02:17:30;;;;;;;9.80;5.95;;;21.70;64.20;;;;;;6245395;23;20000;-76
2023/09/27 02:19:56;;;;;;;8.77;5.88;;;21.80;64.50;;;;;;6245151;23;20007;-78
2023/09/27 02:22:22;;;;;;;9.95;5.45;;;21.80;64.20;;;;;;6245061;23;20330;-77
2023/09/27 02:24:48;;;;;;;11.45;5.53;;;21.80;64.30;;;;;;6245172;23;20334;-76
2023/09/27 02:27:14;;;;;;;11.02;5.57;;;21.70;64.30;;;;;;6245106;23;20000;-76
2023/09/27 02:29:42;;;;;;;12.20;6.07;;;21.70;64.50;;;;;;6244931;23;20001;-77
2023/09/27 02:32:09;;;;;;;8.93;6.00;;;21.60;64.40;;;;;;6244879;23;19996;-77
2023/09/27 02:34:35;;;;;;;14.18;6.45;;;21.60;64.60;;;;;;6217934;23;20011;-77
2023/09/27 02:37:01;;;;;;;8.60;6.00;;;21.70;64.50;;;;;;6244638;23;20035;-76
2023/09/27 02:39:30;;;;;;;8.27;5.57;;;21.70;64.70;;;;;;6244857;23;20004;-78
2023/09/27 02:41:57;;;;;;;9.52;6.47;;;21.70;64.50;;;;;;6244770;23;20027;-77
2023/09/27 02:44:23;;;;;;;15.55;6.10;;;21.50;64.60;;;;;;6244849;23;20015;-77
2023/09/27 02:46:52;;;;;;;10.40;5.93;;;21.50;64.60;;;;;;6244340;23;20004;-76
2023/09/27 02:49:19;;;;;;;9.27;6.05;;;21.50;64.70;;;;;;6244558;23;20079;-78
2023/09/27 02:51:47;;;;;;;9.02;5.70;;;21.40;65.00;;;;;;6244714;23;20046;-77
2023/09/27 02:54:14;;;;;;;10.60;5.90;;;21.40;65.00;;;;;;6244918;23;20036;-76
2023/09/27 02:56:40;;;;;;;12.32;6.20;;;21.40;65.00;;;;;;6244965;23;20094;-77
2023/09/27 02:59:06;;;;;;;10.43;5.63;;;21.40;65.00;;;;;;6244562;23;20004;-76
2023/09/27 03:01:32;;;;;;;11.30;5.80;;;21.40;65.10;;;;;;6244206;23;20007;-77
2023/09/27 03:03:58;;;;;;;9.05;5.50;;;21.40;65.30;;;;;;6244164;23;20004;-76
2023/09/27 03:06:24;;;;;;;11.93;6.38;;;21.40;65.20;;;;;;6244404;23;20062;-76
2023/09/27 03:08:50;;;;;;;10.63;6.05;;;21.40;65.00;;;;;;6244793;23;20469;-76
2023/09/27 03:11:17;;;;;;;10.90;5.75;;;21.40;65.20;;;;;;6244496;23;20008;-76
2023/09/27 03:13:43;;;;;;;9.85;5.57;;;21.40;66.00;;;;;;6244438;23;20012;-77
2023/09/27 03:16:10;;;;;;;11.45;5.97;;;21.30;65.40;;;;;;6244331;23;20008;-77
2023/09/27 03:18:36;;;;;;;12.90;6.65;;;21.30;65.30;;;;;;6244484;23;20000;-76
2023/09/27 03:21:02;;;;;;;9.20;5.93;;;21.30;65.30;;;;;;6244730;23;20043;-77
2023/09/27 03:23:29;;;;;;;11.32;6.25;;;21.20;65.60;;;;;;6244274;23;19996;-79
2023/09/27 03:25:58;;;;;;;10.32;5.72;;;21.20;65.60;;;;;;6244552;23;20034;-76
2023/09/27 03:28:23;;;;;;;12.63;6.25;;;21.20;65.80;;;;;;6244564;23;20007;-78
2023/09/27 03:30:50;;;;;;;11.80;6.10;;;21.20;65.70;;;;;;6244417;23;20032;-78
2023/09/27 03:33:16;;;;;;;11.02;6.40;;;21.10;65.80;;;;;;6244471;23;20000;-76
2023/09/27 03:35:41;;;;;;;15.32;6.50;;;21.10;65.90;;;;;;6243678;23;20019;-78
2023/09/27 03:38:07;;;;;;;9.35;6.20;;;21.00;65.70;;;;;;6244229;23;20490;-76
2023/09/27 03:40:33;;;;;;;17.52;6.70;;;21.00;65.90;;;;;;6244368;23;21026;-76
2023/09/27 03:42:59;;;;;;;11.15;5.93;;;21.10;66.00;;;;;;6244584;23;20004;-77
2023/09/27 03:45:25;;;;;;;13.95;5.50;;;21.10;65.90;;;;;;6244437;23;20084;-76
2023/09/27 03:47:51;;;;;;;12.07;6.28;;;21.10;66.20;;;;;;6244200;23;20036;-77
2023/09/27 03:50:17;;;;;;;12.60;6.05;;;21.10;66.00;;;;;;6192518;23;20334;-76
2023/09/27 03:52:43;;;;;;;9.27;5.72;;;21.00;66.10;;;;;;6244535;23;19996;-75
2023/09/27 03:55:10;;;;;;;11.82;5.97;;;21.00;66.00;;;;;;6244151;23;20012;-75
2023/09/27 03:57:36;;;;;;;8.55;5.40;;;21.10;66.10;;;;;;6245474;23;20025;-72
2023/09/27 04:00:06;;;;;;;9.98;5.75;;;21.10;66.10;;;;;;6247155;23;20035;-76
2023/09/27 04:02:33;;;;;;;8.35;6.15;;;21.10;66.10;;;;;;6246461;23;20012;-77
2023/09/27 04:04:58;;;;;;;10.00;5.78;;;21.10;66.00;;;;;;6245940;23;20004;-78
2023/09/27 04:07:24;;;;;;;9.18;5.47;;;21.10;66.10;;;;;;6244281;23;20085;-75
2023/09/27 04:09:50;;;;;;;12.35;5.90;;;21.00;66.20;;;;;;6244909;23;20016;-77
2023/09/27 04:12:16;;;;;;;9.00;5.65;;;21.00;66.00;;;;;;6246061;23;20004;-76
2023/09/27 04:14:41;;;;;;;11.27;6.10;;;21.00;66.20;;;;;;6246581;23;20026;-77
2023/09/27 04:17:07;;;;;;;12.50;6.25;;;21.00;66.40;;;;;;6246365;23;20024;-77
2023/09/27 04:19:33;;;;;;;10.27;5.82;;;20.90;66.10;;;;;;6246060;23;20000;-76
2023/09/27 04:21:59;;;;;;;10.05;6.07;;;20.90;66.30;;;;;;6245739;23;20537;-76
2023/09/27 04:24:26;;;;;;;11.52;6.93;;;20.90;66.30;;;;;;6246425;23;20020;-77
2023/09/27 04:26:53;;;;;;;12.73;7.03;;;20.90;66.40;;;;;;6245981;23;20027;-77
2023/09/27 04:29:19;;;;;;;11.98;6.18;;;20.90;66.20;;;;;;6245977;23;20035;-77
2023/09/27 04:31:45;;;;;;;11.77;6.43;;;20.90;66.20;;;;;;6246111;23;20004;-75
2023/09/27 04:34:11;;;;;;;11.93;5.90;;;20.90;66.30;;;;;;6245842;23;20065;-76
2023/09/27 04:36:37;;;;;;;15.50;6.20;;;20.80;66.00;;;;;;6246368;23;20466;-77
2023/09/27 04:39:11;;;;;;;11.35;6.43;;;20.80;66.30;;;;;;6246132;23;19996;-76
2023/09/27 04:41:36;;;;;;;;;;;20.80;66.40;;;;;;6246362;23;20008;-77
2023/09/27 04:44:02;;;;;;;11.93;6.05;;;20.80;66.70;;;;;;6246233;23;19899;-78
2023/09/27 04:46:28;;;;;;;11.07;6.15;;;20.70;66.40;;;;;;6245719;23;19996;-76
2023/09/27 04:48:53;;;;;;;10.02;6.07;;;20.70;66.50;;;;;;6246220;23;20004;-77
2023/09/27 04:51:19;;;;;;;11.88;6.78;;;20.70;66.60;;;;;;6246248;23;20441;-76
2023/09/27 04:53:45;;;;;;;12.18;6.70;;;20.70;66.80;;;;;;6245533;23;20011;-76
2023/09/27 04:56:11;;;;;;;11.77;6.30;;;20.80;66.70;;;;;;6245460;23;20016;-76
2023/09/27 04:58:38;;;;;;;11.52;6.10;;;20.80;66.60;;;;;;6245260;23;20303;-76
2023/09/27 05:01:05;;;;;;;14.23;6.20;;;20.70;66.50;;;;;;6245319;23;20008;-76
2023/09/27 05:03:31;;;;;;;13.70;6.45;;;20.70;66.80;;;;;;6245666;23;20079;-76
2023/09/27 05:05:57;;;;;;;14.13;6.18;;;20.70;67.10;;;;;;6245789;23;20008;-77
2023/09/27 05:08:24;;;;;;;14.75;6.35;;;20.60;67.20;;;;;;6245116;23;20264;-78
2023/09/27 05:10:51;;;;;;;12.13;6.28;;;20.70;67.20;;;;;;6245297;23;19996;-77
2023/09/27 05:13:20;;;;;;;11.85;6.63;;;20.60;66.50;;;;;;6245526;23;20010;-77
2023/09/27 05:15:53;;;;;;;14.48;5.93;;;20.60;66.70;;;;;;6245451;23;20107;-76
2023/09/27 05:18:20;;;;;;;10.35;6.13;;;20.70;67.00;;;;;;6245995;23;20107;-76
2023/09/27 05:20:45;;;;;;;10.93;5.82;;;20.70;66.60;;;;;;6218218;23;20027;-77
2023/09/27 05:23:12;;;;;;;13.27;6.47;;;20.80;66.60;;;;;;6246361;23;20004;-77
2023/09/27 05:25:38;;;;;;;10.32;6.68;;;20.80;66.60;;;;;;6245525;23;20012;-77
2023/09/27 05:28:04;;;;;;;10.55;5.80;;;20.80;66.40;;;;;;6245523;23;20001;-77
2023/09/27 05:30:31;;;;;;;9.13;6.25;;;20.80;66.50;;;;;;6218387;23;20015;-76
2023/09/27 05:32:57;;;;;;;13.07;6.57;;;20.80;66.30;;;;;;6245280;23;20431;-77
2023/09/27 05:35:23;;;;;;;13.68;6.45;;;20.80;66.40;;;;;;6245477;23;20004;-77
2023/09/27 05:37:50;;;;;;;9.82;6.00;;;20.80;66.30;;;;;;6218328;23;20012;-65
2023/09/27 05:40:16;;;;;;;11.23;6.53;;;20.80;66.30;;;;;;6245335;23;20000;-73
2023/09/27 05:42:42;;;;;;;12.02;6.18;;;20.70;66.40;;;;;;6245032;23;20307;-77
2023/09/27 05:45:11;;;;;;;10.77;6.15;;;20.70;66.30;;;;;;6245682;23;20000;-79
2023/09/27 05:47:39;;;;;;;19.05;6.65;;;20.70;66.40;;;;;;6245002;23;20122;-76
2023/09/27 05:50:05;;;;;;;13.75;6.38;;;20.70;66.50;;;;;;6244745;23;20430;-80
2023/09/27 05:52:33;;;;;;;11.32;6.50;;;20.60;66.50;;;;;;6244661;23;20015;-77
2023/09/27 05:54:58;;;;;;;12.23;5.80;;;20.60;66.60;;;;;;6217633;23;20016;-79
2023/09/27 05:57:24;;;;;;;12.20;6.20;;;20.70;66.60;;;;;;6244638;23;20020;-79
2023/09/27 05:59:50;;;;;;;10.95;6.50;;;20.70;66.50;;;;;;6245076;23;20318;-81
2023/09/27 06:02:16;;;;;;;12.27;6.60;;;20.80;66.40;;;;;;6246016;23;20004;-79
2023/09/27 06:04:48;;;;;;;15.45;6.68;;;20.90;66.20;;;;;;6245084;23;20000;-80
2023/09/27 18:23:28;;;;;;;14.00;7.68;;;26.90;60.20;;;;;;6243542;23;20027;-79
2023/09/27 18:25:53;;;;;;;18.50;7.50;;;26.80;60.20;;;;;;6245823;23;20000;-79
2023/09/27 18:28:23;;;;;;;19.13;7.25;;;26.80;60.70;;;;;;6246521;23;20005;-78
2023/09/27 18:30:49;;;;;;;15.68;7.22;;;26.80;60.40;;;;;;6244578;23;20000;-77
2023/09/27 18:33:15;;;;;;;22.67;10.07;;;26.80;60.80;;;;;;6245557;23;20040;-79
2023/09/27 18:35:41;;;;;;;25.13;12.15;;;26.80;61.00;;;;;;6244243;23;20430;-75
2023/09/27 18:38:08;;;;;;;41.13;26.02;;;26.80;61.00;;;;;;6243592;23;20046;-76
2023/09/27 18:40:37;;;;;;;27.30;10.98;;;26.80;61.20;;;;;;6217324;23;20334;-75
2023/09/27 18:43:03;;;;;;;27.52;14.80;;;26.70;59.60;;;;;;6243782;23;20423;-76
2023/09/27 18:45:30;;;;;;;16.63;10.57;;;26.70;58.90;;;;;;6244363;23;20086;-76
2023/09/27 18:47:56;;;;;;;18.42;8.43;;;26.70;57.10;;;;;;6217885;23;20515;-76
2023/09/27 18:50:22;;;;;;;17.92;10.45;;;26.80;56.10;;;;;;6245069;23;19996;-78
2023/09/27 18:52:49;;;;;;;19.13;8.48;;;26.80;55.30;;;;;;6244096;23;20437;-76
2023/09/27 18:55:15;;;;;;;16.60;9.70;;;26.70;54.60;;;;;;6244645;23;20074;-76
2023/09/27 18:57:44;;;;;;;24.50;15.20;;;26.80;54.10;;;;;;6217370;23;20016;-76
2023/09/27 19:00:11;;;;;;;22.98;9.55;;;26.80;54.00;;;;;;6217750;23;20062;-78
2023/09/27 19:02:37;;;;;;;19.33;9.10;;;26.70;53.50;;;;;;6245474;23;20066;-82
2023/09/27 19:05:03;;;;;;;20.45;9.30;;;26.70;53.10;;;;;;6245798;23;20008;-82
2023/09/27 19:07:29;;;;;;;16.92;9.52;;;26.70;53.00;;;;;;6245713;23;20307;-81
2023/09/27 19:09:55;;;;;;;25.67;12.18;;;26.60;52.90;;;;;;6245651;23;20003;-80
2023/09/27 19:12:21;;;;;;;17.75;7.65;;;26.60;52.90;;;;;;6244862;23;20004;-80
2023/09/27 19:14:47;;;;;;;16.50;8.93;;;26.60;52.90;;;;;;6243286;23;20078;-81
2023/09/27 19:17:13;;;;;;;17.90;6.80;;;26.50;52.80;;;;;;6243390;23;20405;-80
2023/09/27 19:19:43;;;;;;;19.77;9.55;;;26.50;52.90;;;;;;6243502;23;20115;-79
2023/09/27 19:22:09;;;;;;;16.13;7.90;;;26.50;52.80;;;;;;6217509;23;20527;-85
2023/09/27 19:24:35;;;;;;;19.95;10.10;;;26.40;52.90;;;;;;6245727;23;20486;-82
2023/09/27 19:27:01;;;;;;;28.75;14.80;;;26.40;52.90;;;;;;6246000;23;20330;-82
2023/09/27 19:29:27;;;;;;;21.98;10.40;;;26.40;52.90;;;;;;6245790;23;19997;-81
2023/09/27 19:31:53;;;;;;;27.98;13.55;;;26.30;52.90;;;;;;6245235;23;20004;-86
2023/09/27 19:34:18;;;;;;;14.38;7.68;;;26.30;53.00;;;;;;6247000;23;20000;-83
2023/09/27 19:36:44;;;;;;;37.97;16.45;;;26.30;53.00;;;;;;6248777;23;20019;-84
2023/09/27 19:39:12;;;;;;;21.98;10.73;;;26.30;53.20;;;;;;6257431;23;19996;-86
2023/09/27 19:41:38;;;;;;;19.75;9.50;;;26.30;53.00;;;;;;6251768;23;20095;-85
2023/09/27 19:44:04;;;;;;;17.27;10.25;;;26.20;52.90;;;;;;6248498;23;20000;-85
2023/09/27 19:46:31;;;;;;;20.35;9.10;;;26.20;53.20;;;;;;6250401;23;20011;-86
2023/09/27 19:48:57;;;;;;;18.77;9.27;;;26.10;53.10;;;;;;6248865;23;20002;-85
2023/09/27 19:51:26;;;;;;;27.05;14.40;;;26.10;53.30;;;;;;6248284;23;20004;-84
2023/09/27 19:53:53;;;;;;;22.65;12.88;;;26.00;53.60;;;;;;6246706;23;20004;-86
2023/09/27 19:56:19;;;;;;;15.13;7.45;;;26.00;53.50;;;;;;6219432;23;20016;-86
2023/09/27 19:58:45;;;;;;;13.32;7.95;;;26.00;53.60;;;;;;6246330;23;20031;-86
2023/09/27 20:01:24;;;;;;;19.02;10.77;;;25.90;53.60;;;;;;6256300;23;20000;-85
2023/09/27 20:03:50;;;;;;;16.90;7.50;;;25.90;53.80;;;;;;6264409;23;20004;-87
2023/09/27 20:06:15;;;;;;;14.23;8.15;;;25.80;53.90;;;;;;6232953;23;20027;-85
2023/09/27 20:08:41;;;;;;;19.35;9.30;;;25.80;54.00;;;;;;6198547;23;20024;-84
2023/09/27 20:11:07;;;;;;;19.45;7.93;;;25.80;54.00;;;;;;6247331;23;20071;-86
2023/09/27 20:13:32;;;;;;;12.00;7.03;;;25.80;54.00;;;;;;6248254;23;20008;-85
2023/09/27 20:15:58;;;;;;;18.67;8.63;;;25.80;54.50;;;;;;6246752;23;20430;-87
2023/09/27 20:18:25;;;;;;;13.50;7.63;;;25.70;54.10;;;;;;6248093;23;20028;-86
2023/09/27 20:20:51;;;;;;;12.90;7.07;;;25.70;54.20;;;;;;6250890;23;20000;-84
2023/09/27 20:23:17;;;;;;;18.95;10.57;;;25.70;54.20;;;;;;6247291;23;20026;-84
2023/09/27 20:25:43;;;;;;;20.88;10.98;;;25.70;54.00;;;;;;6247103;23;20000;-84
2023/09/27 20:28:09;;;;;;;24.70;15.13;;;25.70;54.00;;;;;;6244586;23;20028;-85
2023/09/27 20:30:36;;;;;;;24.40;9.63;;;25.70;54.60;;;;;;6245046;23;20004;-84
2023/09/27 20:33:02;;;;;;;19.10;9.10;;;25.60;54.60;;;;;;6244744;23;20015;-84
2023/09/27 20:35:28;;;;;;;16.40;8.35;;;25.60;54.50;;;;;;6243703;23;20042;-83
2023/09/27 20:37:54;;;;;;;17.42;7.40;;;25.50;54.60;;;;;;6245434;23;20004;-80
2023/09/27 20:40:20;;;;;;;16.60;7.78;;;25.50;55.10;;;;;;6246308;23;20306;-85
2023/09/27 20:42:46;;;;;;;12.00;7.03;;;25.40;54.80;;;;;;6246439;23;20087;-84
2023/09/27 20:45:12;;;;;;;15.85;7.57;;;25.40;54.70;;;;;;6246039;23;20000;-78
2023/09/27 20:47:38;;;;;;;13.25;6.80;;;25.40;55.60;;;;;;6246323;23;20459;-78
2023/09/27 20:50:05;;;;;;;13.38;7.68;;;25.40;55.50;;;;;;6245679;23;20004;-77
2023/09/27 20:52:30;;;;;;;13.65;6.68;;;25.40;55.30;;;;;;6245596;23;20003;-78
2023/09/27 20:54:57;;;;;;;14.48;7.78;;;25.30;55.50;;;;;;6246090;23;20008;-78
2023/09/27 20:57:23;;;;;;;14.43;6.95;;;25.30;55.80;;;;;;6246244;23;20008;-77
2023/09/27 20:59:49;;;;;;;16.60;7.38;;;25.30;55.50;;;;;;6246417;23;20007;-77
2023/09/27 21:02:15;;;;;;;25.55;7.15;;;25.30;55.40;;;;;;6245893;23;20004;-77
2023/09/27 21:04:41;;;;;;;16.95;8.40;;;25.30;55.50;;;;;;6245941;23;20063;-78
2023/09/27 21:07:06;;;;;;;18.83;7.32;;;25.20;56.00;;;;;;6245886;23;20002;-76
2023/09/27 21:09:32;;;;;;;12.55;7.32;;;25.20;56.00;;;;;;6246765;23;20430;-79
2023/09/27 21:11:59;;;;;;;12.68;7.50;;;25.20;56.00;;;;;;6252809;23;20000;-78
2023/09/27 21:14:25;;;;;;;13.35;6.75;;;25.20;55.90;;;;;;6220215;23;20315;-78
2023/09/27 21:16:51;;;;;;;15.25;7.38;;;25.20;55.70;;;;;;6246323;23;20008;-78
2023/09/27 21:19:17;;;;;;;16.80;8.50;;;25.20;56.30;;;;;;6246318;23;20098;-77
2023/09/27 21:21:43;;;;;;;14.52;8.00;;;25.20;55.70;;;;;;6246004;23;20020;-76
2023/09/27 21:24:08;;;;;;;13.23;6.97;;;25.10;55.70;;;;;;6246252;23;20486;-76
2023/09/27 21:26:34;;;;;;;17.70;7.15;;;25.10;55.90;;;;;;6245701;23;20058;-75
2023/09/27 21:29:00;;;;;;;17.60;7.10;;;25.10;56.60;;;;;;6245528;23;20003;-75
2023/09/27 21:31:26;;;;;;;12.88;7.22;;;25.10;56.60;;;;;;6246041;23;20004;-76
2023/09/27 21:33:52;;;;;;;15.75;7.30;;;25.00;56.80;;;;;;6245700;23;20027;-75
2023/09/27 21:36:18;;;;;;;17.20;7.47;;;25.00;56.90;;;;;;6245436;23;20020;-72
2023/09/27 21:38:44;;;;;;;14.02;7.25;;;25.00;56.80;;;;;;6245657;23;20386;-76
2023/09/27 21:41:10;;;;;;;12.02;7.10;;;25.00;56.90;;;;;;6218545;23;20011;-77
2023/09/27 21:43:36;;;;;;;17.10;7.10;;;24.90;56.90;;;;;;6245492;23;20094;-75
2023/09/27 21:46:03;;;;;;;13.60;7.28;;;24.90;57.00;;;;;;6245714;23;20003;-76
2023/09/27 21:48:31;;;;;;;16.42;6.95;;;24.90;57.20;;;;;;6245251;23;20071;-75
2023/09/27 21:50:57;;;;;;;16.50;7.20;;;24.80;57.20;;;;;;6245238;23;20004;-76
2023/09/27 21:53:23;;;;;;;16.15;7.57;;;24.70;57.20;;;;;;6245325;23;20106;-75
2023/09/27 21:55:49;;;;;;;12.27;6.78;;;24.70;57.60;;;;;;6245095;23;20012;-75
2023/09/27 21:58:14;;;;;;;11.50;6.45;;;24.70;57.60;;;;;;6244609;23;20302;-75
2023/09/27 22:00:41;;;;;;;14.43;6.93;;;24.60;57.50;;;;;;6244874;23;20460;-75
2023/09/27 22:03:11;;;;;;;14.75;6.95;;;24.70;57.90;;;;;;6244851;23;20030;-76
2023/09/27 22:05:37;;;;;;;15.88;7.00;;;24.70;57.90;;;;;;6244909;23;20082;-75
2023/09/27 22:08:02;;;;;;;13.43;6.40;;;24.70;57.70;;;;;;6245220;23;20335;-75
2023/09/27 22:10:34;;;;;;;14.80;6.72;;;24.60;57.60;;;;;;6241567;23;20006;-75
2023/09/27 22:13:20;;;;;;;18.75;6.95;;;24.60;57.90;;;;;;6245357;23;20031;-74
2023/09/27 22:15:51;;;;;;;13.93;6.93;;;24.60;57.70;;;;;;6218322;23;20385;-74
2023/09/27 22:18:17;;;;;;;13.55;6.78;;;24.50;57.90;;;;;;6218911;23;20047;-76
2023/09/27 22:20:47;;;;;;;12.43;6.47;;;24.50;57.70;;;;;;6246088;23;20003;-75
2023/09/27 22:23:33;;;;;;;16.88;6.75;;;24.40;57.90;;;;;;6245556;23;20028;-75
2023/09/27 22:26:00;;;;;;;12.50;6.63;;;24.40;58.30;;;;;;6245448;23;20450;-77
2023/09/27 22:28:28;;;;;;;11.93;6.25;;;24.30;58.20;;;;;;6245047;23;19996;-75
2023/09/27 22:30:55;;;;;;;17.02;6.60;;;24.30;58.30;;;;;;6244865;23;20437;-77
2023/09/27 22:33:29;;;;;;;20.88;6.70;;;24.30;58.30;;;;;;6245242;23;19996;-74
2023/09/27 22:35:55;;;;;;;14.93;6.60;;;24.40;58.20;;;;;;6244788;23;20015;-75
2023/09/27 22:38:21;;;;;;;16.98;7.22;;;24.30;58.40;;;;;;6244713;23;20349;-74
2023/09/27 22:40:47;;;;;;;12.25;6.82;;;24.20;58.60;;;;;;6244602;23;20003;-75
2023/09/27 22:43:14;;;;;;;12.93;6.65;;;24.10;58.70;;;;;;6244594;23;20426;-74
2023/09/27 22:45:47;;;;;;;12.00;6.50;;;24.10;58.80;;;;;;6244256;23;20079;-74
2023/09/27 22:48:14;;;;;;;14.63;8.88;;;24.10;59.50;;;;;;6244492;23;20004;-74
2023/09/27 22:50:45;;;;;;;15.70;7.03;;;24.10;58.60;;;;;;6217945;23;20371;-76
2023/09/27 22:53:13;;;;;;;11.63;6.97;;;24.10;59.00;;;;;;6244535;23;20024;-75
2023/09/27 22:55:41;;;;;;;16.60;7.40;;;24.00;59.10;;;;;;6244396;23;20047;-74
2023/09/27 22:58:08;;;;;;;18.27;7.20;;;24.00;59.10;;;;;;6244567;23;20342;-74
2023/09/27 23:00:38;;;;;;;21.10;8.32;;;24.00;59.10;;;;;;6244178;23;19996;-74
2023/09/27 23:03:07;;;;;;;14.27;7.38;;;24.00;59.00;;;;;;6244453;22;20004;-74
2023/09/27 23:05:38;;;;;;;14.88;6.95;;;24.00;59.20;;;;;;6244032;23;20039;-75
2023/09/27 23:08:09;;;;;;;13.30;6.95;;;24.00;59.20;;;;;;6244351;23;20006;-75
2023/09/27 23:10:41;;;;;;;14.25;6.72;;;24.00;59.10;;;;;;6244103;23;19997;-74
2023/09/27 23:15:53;;;;;;;16.15;6.57;;;23.90;59.30;;;;;;6244522;23;20015;-76
2023/09/27 23:18:26;;;;;;;11.63;6.93;;;23.90;59.10;;;;;;6244967;23;20041;-75
2023/09/27 23:20:53;;;;;;;15.88;6.55;;;23.80;59.40;;;;;;6244648;23;20062;-74
2023/09/27 23:23:19;;;;;;;16.42;7.35;;;23.80;59.40;;;;;;6244261;23;20145;-73
2023/09/27 23:28:39;;;;;;;15.63;7.15;;;23.80;59.40;;;;;;6247078;22;20099;-74
2023/09/27 23:31:09;;;;;;;15.52;6.95;;;23.70;59.50;;;;;;6244214;23;20083;-72
2023/09/27 23:33:42;;;;;;;15.98;7.35;;;23.60;59.70;;;;;;6244590;22;20034;-76
2023/09/27 23:36:24;;;;;;;11.63;6.45;;;23.60;59.70;;;;;;6244384;22;20402;-76
2023/09/27 23:38:58;;;;;;;13.45;6.40;;;23.40;60.10;;;;;;6244437;23;20000;-75
2023/09/27 23:41:25;;;;;;;15.65;6.45;;;23.40;60.20;;;;;;6244257;23;20054;-74
2023/09/27 23:43:51;;;;;;;17.95;6.65;;;23.40;59.90;;;;;;6243913;23;20004;-74
2023/09/27 23:46:23;;;;;;;15.63;6.53;;;23.40;59.90;;;;;;6243932;23;20444;-74
2023/09/27 23:48:52;;;;;;;15.35;6.35;;;23.30;60.00;;;;;;6244291;23;19996;-73
2023/09/27 23:51:28;;;;;;;14.15;6.40;;;23.40;60.10;;;;;;6244225;23;20441;-73
2023/09/27 23:53:58;;;;;;;11.10;6.63;;;23.40;60.30;;;;;;6244150;23;20000;-74
2023/09/27 23:56:24;;;;;;;10.98;6.55;;;23.40;60.80;;;;;;6243908;23;20007;-74
2023/09/27 23:58:53;;;;;;;15.27;6.80;;;23.30;60.30;;;;;;6243992;23;20004;-75
